sensor_id;sensor_type;location;lat;lon;timestamp;pressure;altitude;pressure_sealevel;temperature;humidity
6132;BME280;3097;42.692;23.278;2022-11-20T00:00:50;94273.50;;;18.76;67.45
6132;BME280;3097;42.692;23.278;2022-11-20T00:03:15;94243.75;;;18.77;67.56
6132;BME280;3097;42.692;23.278;2022-11-20T00:05:42;94236.28;;;18.70;67.38
6132;BME280;3097;42.692;23.278;2022-11-20T00:08:08;94250.28;;;18.74;67.48
6132;BME280;3097;42.692;23.278;2022-11-20T00:10:36;94259.00;;;18.70;68.05
6132;BME280;3097;42.692;23.278;2022-11-20T00:13:02;94255.25;;;18.76;67.61
6132;BME280;3097;42.692;23.278;2022-11-20T00:15:28;94238.78;;;18.75;67.50
6132;BME280;3097;42.692;23.278;2022-11-20T00:17:53;94255.72;;;18.78;66.61
6132;BME280;3097;42.692;23.278;2022-11-20T00:20:19;94213.56;;;18.84;66.77
6132;BME280;3097;42.692;23.278;2022-11-20T00:22:44;94229.63;;;18.91;66.67
6132;BME280;3097;42.692;23.278;2022-11-20T00:25:10;94221.41;;;18.84;66.68
6132;BME280;3097;42.692;23.278;2022-11-20T00:27:36;94237.25;;;18.88;64.63
6132;BME280;3097;42.692;23.278;2022-11-20T00:30:03;94262.31;;;18.89;66.13
6132;BME280;3097;42.692;23.278;2022-11-20T00:32:29;94227.41;;;18.99;65.39
6132;BME280;3097;42.692;23.278;2022-11-20T00:34:55;94214.34;;;18.99;65.73
6132;BME280;3097;42.692;23.278;2022-11-20T00:37:20;94234.97;;;19.00;65.63
6132;BME280;3097;42.692;23.278;2022-11-20T00:39:46;94249.38;;;18.98;65.47
6132;BME280;3097;42.692;23.278;2022-11-20T00:42:11;94242.88;;;18.95;67.04
6132;BME280;3097;42.692;23.278;2022-11-20T00:44:36;94246.88;;;18.92;66.57
6132;BME280;3097;42.692;23.278;2022-11-20T00:47:02;94274.19;;;18.81;65.89
6132;BME280;3097;42.692;23.278;2022-11-20T00:49:27;94254.69;;;18.92;66.35
6132;BME280;3097;42.692;23.278;2022-11-20T00:51:53;94252.28;;;18.96;67.08
6132;BME280;3097;42.692;23.278;2022-11-20T00:54:18;94241.91;;;18.91;66.78
6132;BME280;3097;42.692;23.278;2022-11-20T00:56:44;94251.31;;;18.92;66.90
6132;BME280;3097;42.692;23.278;2022-11-20T00:59:09;94239.59;;;18.89;67.00
6132;BME280;3097;42.692;23.278;2022-11-20T01:01:36;94247.25;;;18.86;67.23
6132;BME280;3097;42.692;23.278;2022-11-20T01:04:01;94246.47;;;18.85;67.04
6132;BME280;3097;42.692;23.278;2022-11-20T01:06:33;94250.69;;;18.81;68.01
6132;BME280;3097;42.692;23.278;2022-11-20T01:09:05;94260.19;;;18.77;68.19
6132;BME280;3097;42.692;23.278;2022-11-20T01:11:40;94226.22;;;18.77;67.42
6132;BME280;3097;42.692;23.278;2022-11-20T01:14:10;94239.47;;;18.81;67.34
6132;BME280;3097;42.692;23.278;2022-11-20T01:16:41;94235.25;;;18.85;66.86
6132;BME280;3097;42.692;23.278;2022-11-20T01:19:10;94207.56;;;18.84;67.59
6132;BME280;3097;42.692;23.278;2022-11-20T01:21:39;94230.09;;;18.80;67.66
6132;BME280;3097;42.692;23.278;2022-11-20T01:24:06;94232.91;;;18.83;66.48
6132;BME280;3097;42.692;23.278;2022-11-20T01:26:35;94215.59;;;18.87;65.82
6132;BME280;3097;42.692;23.278;2022-11-20T01:29:02;94231.75;;;18.89;66.93
6132;BME280;3097;42.692;23.278;2022-11-20T01:31:31;94225.56;;;18.85;66.96
6132;BME280;3097;42.692;23.278;2022-11-20T01:33:59;94208.75;;;18.91;66.26
6132;BME280;3097;42.692;23.278;2022-11-20T01:36:26;94221.22;;;18.94;65.94
6132;BME280;3097;42.692;23.278;2022-11-20T01:38:53;94208.91;;;18.95;66.07
6132;BME280;3097;42.692;23.278;2022-11-20T01:41:20;94207.41;;;18.94;65.53
6132;BME280;3097;42.692;23.278;2022-11-20T01:44:05;94234.38;;;18.89;65.91
6132;BME280;3097;42.692;23.278;2022-11-20T01:46:32;94227.81;;;18.92;65.78
6132;BME280;3097;42.692;23.278;2022-11-20T01:49:27;94209.13;;;18.99;65.94
6132;BME280;3097;42.692;23.278;2022-11-20T01:52:02;94234.19;;;18.86;66.45
6132;BME280;3097;42.692;23.278;2022-11-20T01:54:52;94223.34;;;18.79;66.72
6132;BME280;3097;42.692;23.278;2022-11-20T01:57:19;94243.75;;;18.77;67.23
6132;BME280;3097;42.692;23.278;2022-11-20T01:59:54;94224.31;;;18.83;67.22
6132;BME280;3097;42.692;23.278;2022-11-20T02:02:22;94241.31;;;18.80;67.32
6132;BME280;3097;42.692;23.278;2022-11-20T02:04:49;94241.91;;;18.77;67.33
6132;BME280;3097;42.692;23.278;2022-11-20T02:07:17;94231.25;;;18.74;67.49
6132;BME280;3097;42.692;23.278;2022-11-20T02:09:43;94240.13;;;18.73;67.47
6132;BME280;3097;42.692;23.278;2022-11-20T02:12:08;94244.00;;;18.75;67.73
6132;BME280;3097;42.692;23.278;2022-11-20T02:14:53;94236.19;;;18.75;67.32
6132;BME280;3097;42.692;23.278;2022-11-20T02:17:19;94236.28;;;18.70;67.88
6132;BME280;3097;42.692;23.278;2022-11-20T02:19:45;94214.69;;;18.65;67.78
6132;BME280;3097;42.692;23.278;2022-11-20T02:22:21;94248.34;;;18.66;67.77
6132;BME280;3097;42.692;23.278;2022-11-20T02:24:51;94232.00;;;18.61;67.42
6132;BME280;3097;42.692;23.278;2022-11-20T02:27:17;94202.59;;;18.36;67.91
6132;BME280;3097;42.692;23.278;2022-11-20T02:29:57;94243.34;;;18.51;68.28
6132;BME280;3097;42.692;23.278;2022-11-20T02:32:33;94238.63;;;18.53;68.21
6132;BME280;3097;42.692;23.278;2022-11-20T02:35:07;94231.50;;;18.59;68.14
6132;BME280;3097;42.692;23.278;2022-11-20T02:37:34;94235.72;;;18.54;68.72
6132;BME280;3097;42.692;23.278;2022-11-20T02:40:01;94253.16;;;18.59;68.48
6132;BME280;3097;42.692;23.278;2022-11-20T02:42:27;94254.72;;;18.60;68.08
6132;BME280;3097;42.692;23.278;2022-11-20T02:44:52;94248.84;;;18.49;68.53
6132;BME280;3097;42.692;23.278;2022-11-20T02:47:17;94247.72;;;18.55;68.94
6132;BME280;3097;42.692;23.278;2022-11-20T02:49:43;94252.66;;;18.57;69.16
6132;BME280;3097;42.692;23.278;2022-11-20T02:52:08;94260.84;;;18.50;69.69
6132;BME280;3097;42.692;23.278;2022-11-20T02:54:34;94256.38;;;18.51;69.91
6132;BME280;3097;42.692;23.278;2022-11-20T02:56:59;94255.81;;;18.54;70.26
6132;BME280;3097;42.692;23.278;2022-11-20T02:59:25;94264.31;;;18.46;70.75
6132;BME280;3097;42.692;23.278;2022-11-20T03:01:50;94269.25;;;18.47;71.15
6132;BME280;3097;42.692;23.278;2022-11-20T03:04:15;94270.88;;;18.43;71.44
6132;BME280;3097;42.692;23.278;2022-11-20T03:06:41;94276.03;;;18.30;71.95
6132;BME280;3097;42.692;23.278;2022-11-20T03:09:06;94273.84;;;18.37;72.16
6132;BME280;3097;42.692;23.278;2022-11-20T03:11:32;94291.03;;;18.38;71.87
6132;BME280;3097;42.692;23.278;2022-11-20T03:13:57;94273.91;;;18.32;72.74
6132;BME280;3097;42.692;23.278;2022-11-20T03:16:23;94272.44;;;18.26;72.63
6132;BME280;3097;42.692;23.278;2022-11-20T03:18:49;94272.38;;;18.31;72.82
6132;BME280;3097;42.692;23.278;2022-11-20T03:21:15;94282.94;;;18.21;73.26
6132;BME280;3097;42.692;23.278;2022-11-20T03:23:42;94266.16;;;18.08;73.77
6132;BME280;3097;42.692;23.278;2022-11-20T03:26:17;94273.72;;;18.09;73.65
6132;BME280;3097;42.692;23.278;2022-11-20T03:28:48;94272.09;;;18.13;72.97
6132;BME280;3097;42.692;23.278;2022-11-20T03:31:15;94281.53;;;18.09;72.86
6132;BME280;3097;42.692;23.278;2022-11-20T03:33:42;94286.09;;;17.99;73.10
6132;BME280;3097;42.692;23.278;2022-11-20T03:36:11;94293.66;;;18.00;73.43
6132;BME280;3097;42.692;23.278;2022-11-20T03:38:37;94300.44;;;18.01;73.28
6132;BME280;3097;42.692;23.278;2022-11-20T03:41:05;94313.56;;;17.96;73.86
6132;BME280;3097;42.692;23.278;2022-11-20T03:43:31;94306.16;;;18.03;73.58
6132;BME280;3097;42.692;23.278;2022-11-20T03:45:57;94317.38;;;18.04;73.57
6132;BME280;3097;42.692;23.278;2022-11-20T03:48:23;94314.81;;;17.99;73.59
6132;BME280;3097;42.692;23.278;2022-11-20T03:50:49;94298.44;;;17.93;73.15
6132;BME280;3097;42.692;23.278;2022-11-20T03:53:15;94346.16;;;17.94;73.38
6132;BME280;3097;42.692;23.278;2022-11-20T03:55:41;94312.25;;;18.12;72.17
6132;BME280;3097;42.692;23.278;2022-11-20T03:58:07;94314.03;;;17.98;72.56
6132;BME280;3097;42.692;23.278;2022-11-20T04:00:32;94276.03;;;17.73;72.12
6132;BME280;3097;42.692;23.278;2022-11-20T04:02:58;94312.53;;;17.92;71.89
6132;BME280;3097;42.692;23.278;2022-11-20T04:05:24;94318.41;;;18.03;71.92
6132;BME280;3097;42.692;23.278;2022-11-20T04:07:49;94321.28;;;18.01;72.66
6132;BME280;3097;42.692;23.278;2022-11-20T04:10:15;94324.41;;;18.03;72.42
6132;BME280;3097;42.692;23.278;2022-11-20T04:12:41;94311.13;;;18.00;72.52
6132;BME280;3097;42.692;23.278;2022-11-20T04:15:06;94314.53;;;18.00;72.36
6132;BME280;3097;42.692;23.278;2022-11-20T04:17:32;94304.66;;;17.97;72.68
6132;BME280;3097;42.692;23.278;2022-11-20T04:19:57;94314.59;;;18.14;71.92
6132;BME280;3097;42.692;23.278;2022-11-20T04:22:23;94299.56;;;18.06;71.10
6132;BME280;3097;42.692;23.278;2022-11-20T04:24:48;94307.41;;;18.06;71.46
6132;BME280;3097;42.692;23.278;2022-11-20T04:27:13;94237.81;;;17.64;70.88
6132;BME280;3097;42.692;23.278;2022-11-20T04:29:39;94317.47;;;18.12;71.18
6132;BME280;3097;42.692;23.278;2022-11-20T04:32:05;94317.47;;;18.12;70.72
6132;BME280;3097;42.692;23.278;2022-11-20T04:34:30;94322.44;;;18.14;70.63
6132;BME280;3097;42.692;23.278;2022-11-20T04:36:56;94320.59;;;18.14;71.20
6132;BME280;3097;42.692;23.278;2022-11-20T04:39:21;94233.97;;;17.56;71.27
6132;BME280;3097;42.692;23.278;2022-11-20T04:41:47;94331.03;;;18.14;71.92
6132;BME280;3097;42.692;23.278;2022-11-20T04:44:12;94322.44;;;18.14;71.88
6132;BME280;3097;42.692;23.278;2022-11-20T04:46:40;94312.41;;;18.02;72.21
6132;BME280;3097;42.692;23.278;2022-11-20T04:49:06;94305.28;;;18.08;71.30
6132;BME280;3097;42.692;23.278;2022-11-20T04:51:32;94263.06;;;17.87;71.64
6132;BME280;3097;42.692;23.278;2022-11-20T04:53:58;94300.16;;;18.03;71.80
6132;BME280;3097;42.692;23.278;2022-11-20T04:56:24;94286.09;;;17.99;72.49
6132;BME280;3097;42.692;23.278;2022-11-20T04:58:50;94256.38;;;17.81;72.59
6132;BME280;3097;42.692;23.278;2022-11-20T05:01:18;94272.16;;;18.08;72.07
6132;BME280;3097;42.692;23.278;2022-11-20T05:03:45;94258.84;;;17.91;72.10
6132;BME280;3097;42.692;23.278;2022-11-20T05:06:13;94287.88;;;18.03;72.28
6132;BME280;3097;42.692;23.278;2022-11-20T05:08:39;94256.91;;;17.97;70.30
6132;BME280;3097;42.692;23.278;2022-11-20T05:11:07;94269.56;;;18.08;70.40
6132;BME280;3097;42.692;23.278;2022-11-20T05:13:33;94243.41;;;17.95;70.97
6132;BME280;3097;42.692;23.278;2022-11-20T05:16:06;94265.69;;;17.87;71.48
6132;BME280;3097;42.692;23.278;2022-11-20T05:18:33;94251.00;;;17.91;71.36
6132;BME280;3097;42.692;23.278;2022-11-20T05:20:59;94269.13;;;18.01;70.79
6132;BME280;3097;42.692;23.278;2022-11-20T05:23:25;94277.78;;;17.97;70.84
6132;BME280;3097;42.692;23.278;2022-11-20T05:25:55;94282.44;;;18.00;70.93
6132;BME280;3097;42.692;23.278;2022-11-20T05:28:20;94274.91;;;17.98;71.05
6132;BME280;3097;42.692;23.278;2022-11-20T05:30:46;94233.38;;;17.83;70.64
6132;BME280;3097;42.692;23.278;2022-11-20T05:33:11;94273.44;;;18.11;69.76
6132;BME280;3097;42.692;23.278;2022-11-20T05:35:37;94282.09;;;18.06;69.81
6132;BME280;3097;42.692;23.278;2022-11-20T05:38:02;94289.41;;;18.04;70.23
6132;BME280;3097;42.692;23.278;2022-11-20T05:40:28;94305.81;;;18.10;70.27
6132;BME280;3097;42.692;23.278;2022-11-20T05:42:53;94285.56;;;18.02;71.19
6132;BME280;3097;42.692;23.278;2022-11-20T05:45:19;94296.69;;;18.07;70.45
6132;BME280;3097;42.692;23.278;2022-11-20T05:47:44;94273.22;;;18.07;70.72
6132;BME280;3097;42.692;23.278;2022-11-20T05:50:10;94300.63;;;18.05;71.27
6132;BME280;3097;42.692;23.278;2022-11-20T05:52:35;94298.31;;;18.03;71.03
6132;BME280;3097;42.692;23.278;2022-11-20T05:55:00;94303.97;;;18.10;70.49
6132;BME280;3097;42.692;23.278;2022-11-20T05:57:26;94292.09;;;17.99;71.04
6132;BME280;3097;42.692;23.278;2022-11-20T05:59:52;94318.06;;;18.09;71.19
6132;BME280;3097;42.692;23.278;2022-11-20T06:02:17;94304.16;;;18.14;69.84
6132;BME280;3097;42.692;23.278;2022-11-20T06:04:43;94321.91;;;18.12;71.11
6132;BME280;3097;42.692;23.278;2022-11-20T06:07:08;94324.88;;;18.05;72.02
6132;BME280;3097;42.692;23.278;2022-11-20T06:09:34;94311.56;;;17.88;73.31
6132;BME280;3097;42.692;23.278;2022-11-20T06:11:59;94303.31;;;17.81;73.71
6132;BME280;3097;42.692;23.278;2022-11-20T06:14:25;94303.00;;;17.83;74.00
6132;BME280;3097;42.692;23.278;2022-11-20T06:16:50;94311.75;;;17.73;74.48
6132;BME280;3097;42.692;23.278;2022-11-20T06:19:16;94325.84;;;17.72;74.98
6132;BME280;3097;42.692;23.278;2022-11-20T06:21:41;94295.25;;;17.54;75.16
6132;BME280;3097;42.692;23.278;2022-11-20T06:24:09;94314.56;;;17.76;74.87
6132;BME280;3097;42.692;23.278;2022-11-20T06:26:36;94318.94;;;17.81;74.85
6132;BME280;3097;42.692;23.278;2022-11-20T06:29:01;94331.66;;;17.88;74.52
6132;BME280;3097;42.692;23.278;2022-11-20T06:31:27;94234.78;;;17.33;74.62
6132;BME280;3097;42.692;23.278;2022-11-20T06:33:53;94283.84;;;17.73;73.73
6132;BME280;3097;42.692;23.278;2022-11-20T06:36:20;94326.28;;;17.98;73.78
6132;BME280;3097;42.692;23.278;2022-11-20T06:38:46;94329.03;;;17.88;74.34
6132;BME280;3097;42.692;23.278;2022-11-20T06:41:14;94335.16;;;17.97;74.28
6132;BME280;3097;42.692;23.278;2022-11-20T06:43:40;94345.81;;;18.00;74.10
6132;BME280;3097;42.692;23.278;2022-11-20T06:46:06;94350.19;;;18.05;74.30
6132;BME280;3097;42.692;23.278;2022-11-20T06:48:32;94335.31;;;18.05;74.09
6132;BME280;3097;42.692;23.278;2022-11-20T06:50:58;94326.09;;;18.13;72.63
6132;BME280;3097;42.692;23.278;2022-11-20T06:53:24;94336.91;;;18.25;72.43
6132;BME280;3097;42.692;23.278;2022-11-20T06:55:51;94333.56;;;18.19;73.00
6132;BME280;3097;42.692;23.278;2022-11-20T06:58:18;94316.44;;;18.13;72.75
6132;BME280;3097;42.692;23.278;2022-11-20T07:00:43;94344.88;;;18.34;72.20
6132;BME280;3097;42.692;23.278;2022-11-20T07:03:10;94360.03;;;18.32;72.42
6132;BME280;3097;42.692;23.278;2022-11-20T07:05:36;94342.53;;;18.32;72.84
6132;BME280;3097;42.692;23.278;2022-11-20T07:08:04;94348.53;;;18.33;72.38
6132;BME280;3097;42.692;23.278;2022-11-20T07:10:30;94328.44;;;18.33;72.01
6132;BME280;3097;42.692;23.278;2022-11-20T07:12:55;94272.44;;;17.88;72.57
6132;BME280;3097;42.692;23.278;2022-11-20T07:15:22;94349.16;;;18.43;71.72
6132;BME280;3097;42.692;23.278;2022-11-20T07:17:48;94356.72;;;18.45;71.27
6132;BME280;3097;42.692;23.278;2022-11-20T07:20:14;94366.78;;;18.51;71.19
6132;BME280;3097;42.692;23.278;2022-11-20T07:22:40;94357.72;;;18.49;71.34
6132;BME280;3097;42.692;23.278;2022-11-20T07:25:06;94349.81;;;18.54;70.98
6132;BME280;3097;42.692;23.278;2022-11-20T07:27:32;94327.44;;;18.29;70.77
6132;BME280;3097;42.692;23.278;2022-11-20T07:29:57;94352.78;;;18.47;70.84
6132;BME280;3097;42.692;23.278;2022-11-20T07:32:23;94362.84;;;18.35;71.04
6132;BME280;3097;42.692;23.278;2022-11-20T07:34:48;94328.50;;;18.09;72.06
6132;BME280;3097;42.692;23.278;2022-11-20T07:37:14;94355.44;;;18.24;72.32
6132;BME280;3097;42.692;23.278;2022-11-20T07:39:40;94355.22;;;18.39;71.90
6132;BME280;3097;42.692;23.278;2022-11-20T07:42:06;94363.63;;;18.36;71.98
6132;BME280;3097;42.692;23.278;2022-11-20T07:44:32;94364.81;;;18.43;70.45
6132;BME280;3097;42.692;23.278;2022-11-20T07:46:57;94355.31;;;18.34;70.81
6132;BME280;3097;42.692;23.278;2022-11-20T07:49:23;94344.16;;;18.47;68.35
6132;BME280;3097;42.692;23.278;2022-11-20T07:51:52;94359.59;;;18.43;68.77
6132;BME280;3097;42.692;23.278;2022-11-20T07:54:21;94346.63;;;18.38;69.66
6132;BME280;3097;42.692;23.278;2022-11-20T07:56:47;94356.56;;;18.36;70.26
6132;BME280;3097;42.692;23.278;2022-11-20T07:59:13;94334.00;;;18.27;72.91
6132;BME280;3097;42.692;23.278;2022-11-20T08:01:39;94374.91;;;18.50;70.65
6132;BME280;3097;42.692;23.278;2022-11-20T08:04:05;94377.81;;;18.48;70.81
6132;BME280;3097;42.692;23.278;2022-11-20T08:06:31;94375.84;;;18.40;70.79
6132;BME280;3097;42.692;23.278;2022-11-20T08:08:56;94371.09;;;18.42;70.69
6132;BME280;3097;42.692;23.278;2022-11-20T08:11:22;94363.47;;;18.46;70.46
6132;BME280;3097;42.692;23.278;2022-11-20T08:14:06;94385.03;;;18.57;70.25
6132;BME280;3097;42.692;23.278;2022-11-20T08:16:41;94377.97;;;18.57;71.05
6132;BME280;3097;42.692;23.278;2022-11-20T08:19:07;94386.94;;;18.70;70.08
6132;BME280;3097;42.692;23.278;2022-11-20T08:21:33;94367.75;;;18.79;70.41
6132;BME280;3097;42.692;23.278;2022-11-20T08:23:59;94342.91;;;18.95;68.68
6132;BME280;3097;42.692;23.278;2022-11-20T08:26:25;94371.97;;;18.94;69.24
6132;BME280;3097;42.692;23.278;2022-11-20T08:28:54;94361.00;;;18.92;70.16
6132;BME280;3097;42.692;23.278;2022-11-20T08:31:20;94375.06;;;19.10;70.60
6132;BME280;3097;42.692;23.278;2022-11-20T08:33:46;94362.22;;;19.13;68.52
6132;BME280;3097;42.692;23.278;2022-11-20T08:36:12;94359.84;;;18.98;69.82
6132;BME280;3097;42.692;23.278;2022-11-20T08:38:37;94391.06;;;19.08;69.10
6132;BME280;3097;42.692;23.278;2022-11-20T08:41:04;94381.53;;;18.99;69.88
6132;BME280;3097;42.692;23.278;2022-11-20T08:43:52;94394.44;;;19.09;70.82
6132;BME280;3097;42.692;23.278;2022-11-20T08:46:18;94416.97;;;19.05;72.54
6132;BME280;3097;42.692;23.278;2022-11-20T08:48:44;94407.19;;;18.78;77.69
6132;BME280;3097;42.692;23.278;2022-11-20T08:51:11;94389.69;;;18.60;78.02
6132;BME280;3097;42.692;23.278;2022-11-20T08:53:36;94400.09;;;18.41;80.75
6132;BME280;3097;42.692;23.278;2022-11-20T08:56:02;94398.25;;;18.23;82.33
6132;BME280;3097;42.692;23.278;2022-11-20T08:58:28;94367.22;;;17.97;83.90
6132;BME280;3097;42.692;23.278;2022-11-20T09:00:53;94379.34;;;17.88;85.38
6132;BME280;3097;42.692;23.278;2022-11-20T09:03:19;94398.16;;;17.85;86.81
6132;BME280;3097;42.692;23.278;2022-11-20T09:05:46;94387.56;;;17.76;87.74
6132;BME280;3097;42.692;23.278;2022-11-20T09:08:12;94402.31;;;17.86;88.56
6132;BME280;3097;42.692;23.278;2022-11-20T09:10:37;94408.03;;;17.88;88.45
6132;BME280;3097;42.692;23.278;2022-11-20T09:13:05;94406.22;;;17.89;89.29
6132;BME280;3097;42.692;23.278;2022-11-20T09:15:31;94411.75;;;17.82;89.04
6132;BME280;3097;42.692;23.278;2022-11-20T09:17:58;94419.06;;;17.80;89.89
6132;BME280;3097;42.692;23.278;2022-11-20T09:20:24;94428.03;;;17.69;90.90
6132;BME280;3097;42.692;23.278;2022-11-20T09:22:50;94417.16;;;17.62;92.14
6132;BME280;3097;42.692;23.278;2022-11-20T09:25:16;94401.00;;;17.60;92.40
6132;BME280;3097;42.692;23.278;2022-11-20T09:27:42;94390.16;;;17.48;88.52
6132;BME280;3097;42.692;23.278;2022-11-20T09:30:12;94382.03;;;17.25;90.76
6132;BME280;3097;42.692;23.278;2022-11-20T09:32:40;94390.44;;;17.17;90.02
6132;BME280;3097;42.692;23.278;2022-11-20T09:35:06;94373.25;;;17.21;90.06
6132;BME280;3097;42.692;23.278;2022-11-20T09:37:32;94366.16;;;17.22;90.98
6132;BME280;3097;42.692;23.278;2022-11-20T09:39:57;94349.03;;;17.16;91.86
6132;BME280;3097;42.692;23.278;2022-11-20T09:42:44;94348.72;;;17.22;91.58
6132;BME280;3097;42.692;23.278;2022-11-20T09:55:57;94338.59;;;17.73;93.65
6132;BME280;3097;42.692;23.278;2022-11-20T09:58:41;94338.63;;;17.92;94.00
6132;BME280;3097;42.692;23.278;2022-11-20T10:01:23;94332.16;;;18.08;92.58
6132;BME280;3097;42.692;23.278;2022-11-20T10:04:13;94329.84;;;18.26;89.03
6132;BME280;3097;42.692;23.278;2022-11-20T10:07:07;94340.56;;;18.43;86.91
6132;BME280;3097;42.692;23.278;2022-11-20T10:09:39;94327.91;;;18.50;88.82
6132;BME280;3097;42.692;23.278;2022-11-20T10:15:38;94328.63;;;18.37;88.34
6132;BME280;3097;42.692;23.278;2022-11-20T10:20:57;94333.72;;;18.47;89.06
6132;BME280;3097;42.692;23.278;2022-11-20T10:23:37;94346.13;;;18.55;87.86
6132;BME280;3097;42.692;23.278;2022-11-20T10:26:17;94354.09;;;18.45;86.31
6132;BME280;3097;42.692;23.278;2022-11-20T10:31:38;94362.56;;;18.18;87.53
6132;BME280;3097;42.692;23.278;2022-11-20T10:37:09;94339.88;;;18.18;88.51
6132;BME280;3097;42.692;23.278;2022-11-20T10:39:41;94357.06;;;18.38;87.52
6132;BME280;3097;42.692;23.278;2022-11-20T10:42:16;94354.88;;;18.27;86.63
6132;BME280;3097;42.692;23.278;2022-11-20T10:44:48;94341.75;;;18.13;87.71
6132;BME280;3097;42.692;23.278;2022-11-20T10:47:30;94343.22;;;18.00;88.94
6132;BME280;3097;42.692;23.278;2022-11-20T10:50:00;94319.50;;;17.78;91.88
6132;BME280;3097;42.692;23.278;2022-11-20T10:52:47;94344.72;;;17.83;92.61
6132;BME280;3097;42.692;23.278;2022-11-20T10:55:34;94356.66;;;17.89;93.88
6132;BME280;3097;42.692;23.278;2022-11-20T10:58:13;94358.84;;;17.82;92.87
6132;BME280;3097;42.692;23.278;2022-11-20T11:00:39;94372.16;;;17.80;90.07
6132;BME280;3097;42.692;23.278;2022-11-20T11:03:22;94405.41;;;17.64;89.32
6132;BME280;3097;42.692;23.278;2022-11-20T11:05:56;94434.69;;;17.22;89.27
6132;BME280;3097;42.692;23.278;2022-11-20T11:08:26;94440.63;;;16.94;88.68
6132;BME280;3097;42.692;23.278;2022-11-20T11:10:57;94409.63;;;16.53;85.70
6132;BME280;3097;42.692;23.278;2022-11-20T11:13:26;94396.53;;;16.19;88.76
6132;BME280;3097;42.692;23.278;2022-11-20T11:15:52;94387.00;;;15.95;87.23
6132;BME280;3097;42.692;23.278;2022-11-20T11:18:29;94384.75;;;15.73;88.98
6132;BME280;3097;42.692;23.278;2022-11-20T11:20:56;94384.50;;;15.49;86.43
6132;BME280;3097;42.692;23.278;2022-11-20T11:23:37;94375.97;;;15.38;90.48
6132;BME280;3097;42.692;23.278;2022-11-20T11:26:05;94376.78;;;15.14;90.60
6132;BME280;3097;42.692;23.278;2022-11-20T11:28:31;94323.34;;;14.87;91.15
6132;BME280;3097;42.692;23.278;2022-11-20T11:30:57;94346.44;;;14.94;92.47
6132;BME280;3097;42.692;23.278;2022-11-20T11:33:27;94357.56;;;14.89;94.07
6132;BME280;3097;42.692;23.278;2022-11-20T11:35:56;94343.84;;;14.84;94.90
6132;BME280;3097;42.692;23.278;2022-11-20T11:38:39;94345.13;;;14.81;94.47
6132;BME280;3097;42.692;23.278;2022-11-20T11:41:07;94352.41;;;14.69;95.73
6132;BME280;3097;42.692;23.278;2022-11-20T11:43:35;94369.25;;;14.77;97.75
6132;BME280;3097;42.692;23.278;2022-11-20T11:49:09;94365.38;;;14.89;91.13
6132;BME280;3097;42.692;23.278;2022-11-20T11:51:45;94347.72;;;14.91;92.46
6132;BME280;3097;42.692;23.278;2022-11-20T11:54:19;94354.19;;;15.04;89.92
6132;BME280;3097;42.692;23.278;2022-11-20T11:56:46;94346.94;;;15.06;90.35
6132;BME280;3097;42.692;23.278;2022-11-20T11:59:17;94352.66;;;15.08;90.81
6132;BME280;3097;42.692;23.278;2022-11-20T12:01:52;94369.25;;;15.07;92.35
6132;BME280;3097;42.692;23.278;2022-11-20T12:07:07;94357.81;;;15.13;90.94
6132;BME280;3097;42.692;23.278;2022-11-20T12:09:37;94363.53;;;15.20;90.68
6132;BME280;3097;42.692;23.278;2022-11-20T12:12:11;94319.13;;;15.11;90.27
6132;BME280;3097;42.692;23.278;2022-11-20T12:14:40;94330.56;;;15.16;88.08
6132;BME280;3097;42.692;23.278;2022-11-20T12:17:11;94350.00;;;15.28;89.38
6132;BME280;3097;42.692;23.278;2022-11-20T12:19:37;94343.81;;;15.24;89.99
6132;BME280;3097;42.692;23.278;2022-11-20T12:25:30;94352.34;;;15.35;90.52
6132;BME280;3097;42.692;23.278;2022-11-20T12:37:20;94312.59;;;15.34;85.61
6132;BME280;3097;42.692;23.278;2022-11-20T12:39:43;94308.22;;;15.25;83.37
6132;BME280;3097;42.692;23.278;2022-11-20T12:42:41;94295.78;;;15.17;86.83
6132;BME280;3097;42.692;23.278;2022-11-20T12:46:02;94287.75;;;15.18;90.69
6132;BME280;3097;42.692;23.278;2022-11-20T12:57:05;94311.81;;;15.44;90.12
6132;BME280;3097;42.692;23.278;2022-11-20T13:05:55;94290.78;;;15.35;91.34
6132;BME280;3097;42.692;23.278;2022-11-20T13:08:36;94289.78;;;15.21;93.04
6132;BME280;3097;42.692;23.278;2022-11-20T13:14:07;94304.16;;;14.88;95.18
6132;BME280;3097;42.692;23.278;2022-11-20T13:16:58;94329.56;;;14.81;95.23
6132;BME280;3097;42.692;23.278;2022-11-20T13:19:26;94330.59;;;14.75;95.58
6132;BME280;3097;42.692;23.278;2022-11-20T13:21:53;94332.44;;;14.69;95.36
6132;BME280;3097;42.692;23.278;2022-11-20T13:26:45;94325.66;;;14.73;94.00
6132;BME280;3097;42.692;23.278;2022-11-20T13:29:18;94324.91;;;14.78;93.65
6132;BME280;3097;42.692;23.278;2022-11-20T13:31:46;94313.47;;;14.74;94.08
6132;BME280;3097;42.692;23.278;2022-11-20T13:34:23;94312.69;;;14.73;93.85
6132;BME280;3097;42.692;23.278;2022-11-20T13:36:51;94315.81;;;14.86;94.07
6132;BME280;3097;42.692;23.278;2022-11-20T13:39:32;94316.06;;;14.89;93.28
6132;BME280;3097;42.692;23.278;2022-11-20T13:42:01;94312.97;;;14.87;93.03
6132;BME280;3097;42.692;23.278;2022-11-20T13:44:34;94303.09;;;14.84;93.74
6132;BME280;3097;42.692;23.278;2022-11-20T13:47:03;94313.97;;;14.81;94.47
6132;BME280;3097;42.692;23.278;2022-11-20T13:49:37;94318.66;;;14.74;94.48
6132;BME280;3097;42.692;23.278;2022-11-20T14:00:04;94344.38;;;14.65;96.86
6132;BME280;3097;42.692;23.278;2022-11-20T14:02:35;94349.03;;;14.68;96.88
6132;BME280;3097;42.692;23.278;2022-11-20T14:05:01;94336.84;;;14.69;96.88
6132;BME280;3097;42.692;23.278;2022-11-20T14:07:39;94348.78;;;14.80;96.12
6132;BME280;3097;42.692;23.278;2022-11-20T14:10:18;94341.25;;;14.84;96.07
6132;BME280;3097;42.692;23.278;2022-11-20T14:12:44;94347.72;;;14.96;96.18
6132;BME280;3097;42.692;23.278;2022-11-20T14:15:28;94352.38;;;15.04;96.54
6132;BME280;3097;42.692;23.278;2022-11-20T14:17:54;94344.59;;;15.15;95.76
6132;BME280;3097;42.692;23.278;2022-11-20T14:20:20;94339.91;;;15.22;96.06
6132;BME280;3097;42.692;23.278;2022-11-20T14:22:50;94339.38;;;15.25;94.46
6132;BME280;3097;42.692;23.278;2022-11-20T14:27:44;94203.81;;;14.43;93.17
6132;BME280;3097;42.692;23.278;2022-11-20T14:30:14;94342.22;;;15.28;94.33